Time;durP1;ratioP1;P1;durP2;ratioP2;P2;SDS_P1;SDS_P2;PMS_P1;PMS_P2;Temp;Humidity;BMP_temperature;BMP_pressure;BME280_temperature;BME280_humidity;BME280_pressure;Samples;Min_cycle;Max_cycle;Signal;HPM_P1;HPM_P2
2022/08/01 00:01:31;;;;;;;;;;;14.40;99.90;;;;;;5031527;28;20016;-69
2022/08/01 00:03:58;;;;;;;;;;;14.40;99.90;;;;;;5031577;28;19951;-69
2022/08/01 00:06:25;;;;;;;;;;;14.70;99.90;;;;;;5041952;28;19913;-69
2022/08/01 00:08:51;;;;;;;;;;;14.80;99.90;;;;;;5030997;28;19936;-69
2022/08/01 00:11:18;;;;;;;;;;;14.80;99.90;;;;;;5030780;28;19909;-69
2022/08/01 00:13:45;;;;;;;;;;;14.90;99.90;;;;;;5030951;28;19909;-69
2022/08/01 00:16:12;;;;;;;;;;;15.10;99.90;;;;;;5032379;28;19913;-69
2022/08/01 00:18:39;;;;;;;;;;;15.30;99.90;;;;;;5032743;28;19914;-69
2022/08/01 00:21:06;;;;;;;;;;;15.40;99.90;;;;;;5032439;28;19921;-69
2022/08/01 00:23:32;;;;;;;;;;;15.50;99.90;;;;;;5032484;28;20359;-69
2022/08/01 00:25:59;;;;;;;;;;;15.50;99.90;;;;;;5032510;28;19909;-69
2022/08/01 00:28:26;;;;;;;;;;;15.40;99.90;;;;;;5052521;28;19948;-70
2022/08/01 00:30:53;;;;;;;;;;;15.50;99.90;;;;;;5052981;28;19916;-69
2022/08/01 00:33:19;;;;;;;;;;;15.60;99.90;;;;;;5053191;28;19999;-69
2022/08/01 00:35:46;;;;;;;;;;;15.80;99.90;;;;;;5053110;28;20360;-69
2022/08/01 00:38:13;;;;;;;;;;;15.90;99.90;;;;;;5052813;28;19909;-69
2022/08/01 00:40:39;;;;;;;;;;;15.90;99.90;;;;;;5052999;28;19909;-70
2022/08/01 00:43:06;;;;;;;;;;;15.90;99.90;;;;;;5053106;28;20290;-69
2022/08/01 00:45:33;;;;;;;;;;;16.00;99.90;;;;;;5053075;28;19913;-69
2022/08/01 00:48:00;;;;;;;;;;;15.90;99.90;;;;;;5052891;28;19960;-70
2022/08/01 00:50:26;;;;;;;;;;;16.00;99.90;;;;;;5053121;28;20281;-69
2022/08/01 00:52:54;;;;;;;;;;;16.00;99.90;;;;;;5052777;28;19909;-70
2022/08/01 00:55:20;;;;;;;;;;;16.30;99.90;;;;;;5052856;28;19909;-70
2022/08/01 00:57:48;;;;;;;;;;;16.40;99.90;;;;;;5052989;28;19913;-70
2022/08/01 01:00:15;;;;;;;;;;;16.40;99.90;;;;;;5052737;28;19980;-70
2022/08/01 01:02:41;;;;;;;;;;;16.30;99.90;;;;;;5053130;28;19924;-70
2022/08/01 01:05:08;;;;;;;;;;;16.30;99.90;;;;;;5056776;28;20438;-70
2022/08/01 01:07:42;;;;;;;;;;;16.30;99.90;;;;;;5056498;28;20248;-70
2022/08/01 01:10:15;;;;;;;;;;;16.50;99.90;;;;;;5056454;28;20408;-70
2022/08/01 01:12:45;;;;;;;;;;;16.90;99.90;;;;;;5056592;28;19912;-70
2022/08/01 01:15:24;;;;;;;;;;;17.40;99.90;;;;;;5055307;28;19913;-70
2022/08/01 01:17:53;;;;;;;;;;;17.70;99.90;;;;;;5056574;28;20359;-70
2022/08/01 01:20:21;;;;;;;;;;;18.40;99.90;;;;;;5056216;28;19916;-70
2022/08/01 01:23:00;;;;;;;;;;;18.80;99.90;;;;;;5056361;28;19924;-70
2022/08/01 01:25:39;;;;;;;;;;;18.90;99.90;;;;;;5056521;28;20374;-70
2022/08/01 01:28:09;;;;;;;;;;;18.90;99.90;;;;;;5056173;28;20512;-69
2022/08/01 01:30:37;;;;;;;;;;;18.40;99.90;;;;;;5056324;28;19909;-70
2022/08/01 01:33:06;;;;;;;;;;;18.30;99.90;;;;;;5056403;28;19909;-70
2022/08/01 01:35:34;;;;;;;;;;;18.20;99.90;;;;;;5056282;28;19916;-69
2022/08/01 01:38:21;;;;;;;;;;;18.00;99.90;;;;;;5055963;28;19960;-70
2022/08/01 01:40:48;;;;;;;;;;;17.80;99.90;;;;;;5055689;28;19940;-69
2022/08/01 01:43:15;;;;;;;;;;;17.70;99.90;;;;;;5055929;28;19952;-70
2022/08/01 01:45:44;;;;;;;;;;;17.70;99.90;;;;;;5056016;28;19909;-69
2022/08/01 01:48:13;;;;;;;;;;;17.70;99.90;;;;;;5055954;28;19909;-70
2022/08/01 01:50:41;;;;;;;;;;;17.70;99.90;;;;;;5055850;28;19995;-69
2022/08/01 01:53:10;;;;;;;;;;;17.70;99.90;;;;;;5055889;28;19980;-69
2022/08/01 01:55:39;;;;;;;;;;;17.60;99.90;;;;;;5055646;28;20379;-70
2022/08/01 01:58:06;;;;;;;;;;;17.50;99.90;;;;;;5055746;28;19909;-69
2022/08/01 02:00:33;;;;;;;;;;;17.50;99.90;;;;;;5055747;28;19915;-69
2022/08/01 02:03:02;;;;;;;;;;;17.50;99.90;;;;;;5055558;28;19913;-69
2022/08/01 02:05:29;;;;;;;;;;;17.40;99.90;;;;;;5055678;28;20291;-70
2022/08/01 02:07:57;;;;;;;;;;;17.40;99.90;;;;;;5055283;28;20403;-69
2022/08/01 02:10:25;;;;;;;;;;;17.30;99.90;;;;;;5055494;28;20375;-69
2022/08/01 02:12:51;;;;;;;;;;;17.20;99.90;;;;;;5055544;28;20359;-69
2022/08/01 02:15:18;;;;;;;;;;;17.20;99.90;;;;;;5055261;28;19916;-69
2022/08/01 02:17:49;;;;;;;;;;;17.10;99.90;;;;;;5055396;28;19908;-69
2022/08/01 02:20:16;;;;;;;;;;;17.00;99.90;;;;;;5055059;28;19916;-69
2022/08/01 02:22:51;;;;;;;;;;;16.90;99.90;;;;;;5055126;28;19916;-69
2022/08/01 02:25:18;;;;;;;;;;;16.80;99.90;;;;;;5055335;28;19932;-70
2022/08/01 02:27:51;;;;;;;;;;;16.70;99.90;;;;;;5055375;28;20311;-70
2022/08/01 02:30:17;;;;;;;;;;;16.70;99.90;;;;;;5055131;28;19909;-70
2022/08/01 02:32:52;;;;;;;;;;;16.70;99.90;;;;;;5055230;28;19944;-70
2022/08/01 02:35:25;;;;;;;;;;;16.70;99.90;;;;;;5055142;28;19978;-69
2022/08/01 02:37:52;;;;;;;;;;;16.70;99.90;;;;;;5055070;28;19912;-70
2022/08/01 02:40:19;;;;;;;;;;;16.70;99.90;;;;;;5053619;28;20359;-70
2022/08/01 02:42:48;;;;;;;;;;;16.70;99.90;;;;;;5054775;28;19916;-70
2022/08/01 02:45:18;;;;;;;;;;;16.50;99.90;;;;;;5054965;28;19909;-69
2022/08/01 02:47:44;;;;;;;;;;;16.40;99.90;;;;;;5054825;28;20403;-70
2022/08/01 02:50:13;;;;;;;;;;;16.30;99.90;;;;;;5054682;28;19909;-70
2022/08/01 02:52:40;;;;;;;;;;;16.30;99.90;;;;;;5054665;28;19909;-70
2022/08/01 02:55:08;;;;;;;;;;;16.50;99.90;;;;;;5054770;28;19916;-70
2022/08/01 02:57:37;;;;;;;;;;;16.50;99.90;;;;;;5054740;28;19909;-69
2022/08/01 03:00:05;;;;;;;;;;;16.40;99.90;;;;;;5054829;28;19916;-69
2022/08/01 03:02:34;;;;;;;;;;;16.60;99.90;;;;;;5054472;28;19986;-69
2022/08/01 03:05:02;;;;;;;;;;;16.70;99.90;;;;;;5054458;28;20414;-69
2022/08/01 03:07:30;;;;;;;;;;;16.70;99.90;;;;;;5054431;28;20209;-69
2022/08/01 03:09:58;;;;;;;;;;;16.70;99.90;;;;;;5054553;28;20020;-69
2022/08/01 03:12:26;;;;;;;;;;;16.70;99.90;;;;;;5054220;28;19909;-69
2022/08/01 03:14:55;;;;;;;;;;;16.80;99.90;;;;;;5054432;28;19962;-69
2022/08/01 03:17:22;;;;;;;;;;;16.80;99.90;;;;;;5054303;28;19921;-69
2022/08/01 03:19:50;;;;;;;;;;;17.00;99.90;;;;;;5054444;28;20012;-69
2022/08/01 03:22:17;;;;;;;;;;;17.00;99.90;;;;;;5053810;28;19963;-69
2022/08/01 03:24:46;;;;;;;;;;;17.00;99.90;;;;;;5054479;28;19908;-69
2022/08/01 03:27:14;;;;;;;;;;;17.00;99.90;;;;;;5053524;28;19909;-69
2022/08/01 03:29:41;;;;;;;;;;;17.20;99.90;;;;;;5054128;28;19971;-69
2022/08/01 03:32:10;;;;;;;;;;;17.30;99.90;;;;;;5053753;28;19927;-69
2022/08/01 03:34:37;;;;;;;;;;;17.50;99.90;;;;;;5054067;28;19937;-69
2022/08/01 03:37:06;;;;;;;;;;;17.60;99.70;;;;;;5053808;28;19917;-68
2022/08/01 03:39:35;;;;;;;;;;;17.60;99.20;;;;;;5053880;28;19916;-70
2022/08/01 03:42:06;;;;;;;;;;;17.60;99.30;;;;;;5053688;28;20381;-69
2022/08/01 03:44:34;;;;;;;;;;;17.60;98.60;;;;;;5053899;28;19908;-70
2022/08/01 03:47:05;;;;;;;;;;;17.80;97.10;;;;;;5053736;28;20278;-70
2022/08/01 03:49:33;;;;;;;;;;;17.90;95.80;;;;;;5053742;28;19913;-70
2022/08/01 03:52:02;;;;;;;;;;;17.90;96.00;;;;;;5053522;28;19924;-70
2022/08/01 03:54:31;;;;;;;;;;;17.90;96.20;;;;;;5053615;28;20319;-70
2022/08/01 03:56:58;;;;;;;;;;;17.80;96.10;;;;;;5052309;28;19908;-70
2022/08/01 03:59:25;;;;;;;;;;;17.80;95.70;;;;;;5053723;28;19909;-70
2022/08/01 04:01:52;;;;;;;;;;;17.80;95.40;;;;;;5053359;28;19913;-69
2022/08/01 04:04:19;;;;;;;;;;;17.80;95.20;;;;;;5053366;28;20425;-70
2022/08/01 04:06:50;;;;;;;;;;;17.70;95.40;;;;;;5053325;28;19909;-69
2022/08/01 04:09:17;;;;;;;;;;;17.80;95.50;;;;;;5053412;28;19962;-70
2022/08/01 04:11:43;;;;;;;;;;;17.70;95.40;;;;;;5053249;28;20286;-69
2022/08/01 04:14:10;;;;;;;;;;;17.80;94.60;;;;;;5053007;28;19915;-69
2022/08/01 04:16:37;;;;;;;;;;;17.60;94.40;;;;;;5053299;28;19909;-69
2022/08/01 04:19:07;;;;;;;;;;;17.60;94.30;;;;;;5053207;28;20026;-70
2022/08/01 04:21:34;;;;;;;;;;;17.60;94.00;;;;;;5052998;28;19928;-70
2022/08/01 04:24:08;;;;;;;;;;;17.60;93.40;;;;;;5053208;28;20566;-69
2022/08/01 04:26:36;;;;;;;;;;;17.60;94.10;;;;;;5053216;28;20363;-70
2022/08/01 04:29:04;;;;;;;;;;;17.60;94.80;;;;;;5053315;28;20389;-69
2022/08/01 04:31:31;;;;;;;;;;;17.60;94.20;;;;;;5051963;28;20297;-70
2022/08/01 04:33:59;;;;;;;;;;;17.50;93.40;;;;;;5053180;28;19919;-70
2022/08/01 04:36:26;;;;;;;;;;;17.30;93.80;;;;;;5052958;28;20023;-70
2022/08/01 04:39:00;;;;;;;;;;;17.30;94.50;;;;;;5055810;28;19916;-69
2022/08/01 04:41:28;;;;;;;;;;;17.30;94.60;;;;;;5057233;28;19943;-70
2022/08/01 04:43:54;;;;;;;;;;;17.50;92.50;;;;;;5057222;28;19909;-70
2022/08/01 04:46:21;;;;;;;;;;;17.40;93.50;;;;;;5056934;28;19912;-70
2022/08/01 04:48:49;;;;;;;;;;;17.50;92.40;;;;;;5057209;28;19915;-69
2022/08/01 04:51:17;;;;;;;;;;;17.50;92.60;;;;;;5057050;28;19951;-69
2022/08/01 04:53:45;;;;;;;;;;;17.50;93.10;;;;;;5056080;28;19916;-69
2022/08/01 04:56:15;;;;;;;;;;;17.40;92.80;;;;;;5056567;28;19913;-69
2022/08/01 04:58:43;;;;;;;;;;;17.50;93.00;;;;;;5055666;28;19978;-69
2022/08/01 05:01:10;;;;;;;;;;;17.50;92.50;;;;;;5055680;28;19913;-70
2022/08/01 05:03:37;;;;;;;;;;;17.50;93.40;;;;;;5057150;28;19952;-69
2022/08/01 05:06:04;;;;;;;;;;;17.50;93.10;;;;;;5056544;28;19955;-70
2022/08/01 05:08:31;;;;;;;;;;;17.30;93.70;;;;;;5055494;28;20313;-69
2022/08/01 05:10:58;;;;;;;;;;;17.30;93.30;;;;;;5056450;28;19924;-69
2022/08/01 05:13:25;;;;;;;;;;;17.30;93.00;;;;;;5056486;28;20327;-68
2022/08/01 05:15:52;;;;;;;;;;;17.50;92.70;;;;;;5056815;28;19935;-69
2022/08/01 05:18:19;;;;;;;;;;;17.50;92.20;;;;;;5056373;28;19954;-69
2022/08/01 05:20:47;;;;;;;;;;;17.50;91.80;;;;;;5056147;28;19927;-69
2022/08/01 05:23:13;;;;;;;;;;;17.40;91.50;;;;;;5056302;28;19975;-69
2022/08/01 05:25:40;;;;;;;;;;;17.40;92.20;;;;;;5056386;28;19963;-68
2022/08/01 05:28:07;;;;;;;;;;;17.30;93.10;;;;;;5056213;28;19935;-69
2022/08/01 05:30:33;;;;;;;;;;;17.30;91.80;;;;;;5056386;28;19931;-68
2022/08/01 05:33:00;;;;;;;;;;;17.40;91.90;;;;;;5056190;28;20355;-67
2022/08/01 05:35:27;;;;;;;;;;;17.50;92.20;;;;;;5056089;28;19913;-68
2022/08/01 05:37:53;;;;;;;;;;;17.30;93.20;;;;;;5056267;28;19909;-68
2022/08/01 05:40:20;;;;;;;;;;;17.20;92.40;;;;;;5056027;28;19952;-68
2022/08/01 05:42:47;;;;;;;;;;;17.20;92.20;;;;;;5054816;28;19909;-69
2022/08/01 05:45:13;;;;;;;;;;;17.30;92.40;;;;;;5054793;28;19932;-69
2022/08/01 05:47:40;;;;;;;;;;;17.20;92.20;;;;;;5056035;28;20004;-69
2022/08/01 05:50:07;;;;;;;;;;;17.20;92.30;;;;;;5054947;28;19930;-68
2022/08/01 05:52:34;;;;;;;;;;;17.30;91.60;;;;;;5055764;28;20335;-68
2022/08/01 05:55:01;;;;;;;;;;;17.30;91.50;;;;;;5055781;28;19916;-68
2022/08/01 05:57:27;;;;;;;;;;;17.40;91.50;;;;;;5055824;28;20000;-68
2022/08/01 05:59:54;;;;;;;;;;;17.30;91.60;;;;;;5055886;28;20051;-68
2022/08/01 06:02:21;;;;;;;;;;;17.30;91.70;;;;;;5054240;28;19909;-68
2022/08/01 06:04:48;;;;;;;;;;;17.30;91.40;;;;;;5055579;28;20295;-68
2022/08/01 06:07:14;;;;;;;;;;;17.20;91.50;;;;;;5055449;28;20043;-68
2022/08/01 06:09:41;;;;;;;;;;;17.00;91.80;;;;;;5055522;28;19955;-68
2022/08/01 06:12:08;;;;;;;;;;;17.00;91.80;;;;;;5055111;28;19920;-68
2022/08/01 06:14:34;;;;;;;;;;;16.90;92.50;;;;;;5055429;28;20389;-68
2022/08/01 06:17:01;;;;;;;;;;;16.90;92.80;;;;;;5055361;28;19909;-68
2022/08/01 06:19:28;;;;;;;;;;;16.70;91.90;;;;;;5054968;28;20294;-68
2022/08/01 06:21:55;;;;;;;;;;;16.70;91.90;;;;;;5055030;28;19928;-68
2022/08/01 06:24:23;;;;;;;;;;;16.90;91.90;;;;;;5054859;28;19961;-68
2022/08/01 06:26:50;;;;;;;;;;;16.90;91.80;;;;;;5055068;28;19936;-69
2022/08/01 06:29:17;;;;;;;;;;;16.80;92.20;;;;;;5055123;28;19915;-68
2022/08/01 06:31:43;;;;;;;;;;;16.70;92.50;;;;;;5053527;28;20008;-68
2022/08/01 06:34:10;;;;;;;;;;;16.70;92.90;;;;;;5054841;28;19951;-68
2022/08/01 06:36:37;;;;;;;;;;;16.70;93.20;;;;;;5055122;28;19909;-68
2022/08/01 06:39:03;;;;;;;;;;;16.70;92.00;;;;;;5054890;28;19908;-68
2022/08/01 06:41:30;;;;;;;;;;;16.60;93.10;;;;;;5054962;28;19909;-68
2022/08/01 06:43:57;;;;;;;;;;;16.50;93.00;;;;;;5054805;28;20386;-68
2022/08/01 06:46:23;;;;;;;;;;;16.40;92.40;;;;;;5054633;28;19909;-68
2022/08/01 06:48:50;;;;;;;;;;;16.30;92.40;;;;;;5054881;28;19909;-68
2022/08/01 06:51:19;;;;;;;;;;;16.20;92.90;;;;;;5052960;28;19917;-68
2022/08/01 06:53:46;;;;;;;;;;;16.10;92.90;;;;;;5052615;28;20279;-69
2022/08/01 06:56:13;;;;;;;;;;;16.10;92.40;;;;;;5052390;28;20321;-68
2022/08/01 06:58:39;;;;;;;;;;;16.10;92.70;;;;;;5052460;28;20003;-68
2022/08/01 07:01:07;;;;;;;;;;;16.20;93.20;;;;;;5051587;28;19962;-68
2022/08/01 07:03:34;;;;;;;;;;;16.10;92.70;;;;;;5052401;28;20315;-68
2022/08/01 07:06:01;;;;;;;;;;;16.00;93.40;;;;;;5051525;28;19935;-68
2022/08/01 07:08:27;;;;;;;;;;;16.10;92.90;;;;;;5052412;28;20417;-68
2022/08/01 07:10:55;;;;;;;;;;;16.00;93.00;;;;;;5050739;28;19909;-68
2022/08/01 07:13:24;;;;;;;;;;;16.00;93.30;;;;;;5052247;28;19916;-69
2022/08/01 07:15:52;;;;;;;;;;;15.90;93.20;;;;;;5052280;28;19917;-68
2022/08/01 07:18:19;;;;;;;;;;;15.80;93.30;;;;;;5051732;28;19909;-68
2022/08/01 07:20:46;;;;;;;;;;;15.70;93.50;;;;;;5051764;28;19982;-68
2022/08/01 07:23:13;;;;;;;;;;;15.60;93.80;;;;;;5051854;28;19953;-68
2022/08/01 07:25:40;;;;;;;;;;;15.60;93.80;;;;;;5052042;28;19909;-68
2022/08/01 07:28:07;;;;;;;;;;;15.50;94.00;;;;;;5051770;28;19947;-68
2022/08/01 07:30:33;;;;;;;;;;;15.40;94.10;;;;;;5051715;28;19909;-68
2022/08/01 07:33:00;;;;;;;;;;;15.40;94.50;;;;;;5051881;28;20509;-68
2022/08/01 07:35:27;;;;;;;;;;;15.40;94.20;;;;;;5051467;28;19908;-68
2022/08/01 07:37:54;;;;;;;;;;;15.30;94.40;;;;;;5051701;28;19913;-68
2022/08/01 07:40:21;;;;;;;;;;;15.40;94.80;;;;;;5051517;28;20035;-68
2022/08/01 07:42:48;;;;;;;;;;;15.50;94.70;;;;;;5051684;28;19924;-68
2022/08/01 07:45:15;;;;;;;;;;;15.50;94.20;;;;;;5051174;28;19909;-69
2022/08/01 07:47:42;;;;;;;;;;;15.50;94.50;;;;;;5051611;28;19921;-69
2022/08/01 07:50:08;;;;;;;;;;;15.40;94.40;;;;;;5051102;28;19913;-69
2022/08/01 07:52:35;;;;;;;;;;;15.40;93.90;;;;;;5051403;28;19916;-69
2022/08/01 07:55:02;;;;;;;;;;;15.60;94.20;;;;;;5050008;28;20286;-71
2022/08/01 07:57:29;;;;;;;;;;;15.50;94.40;;;;;;5051298;28;19916;-69
2022/08/01 07:59:55;;;;;;;;;;;15.50;94.30;;;;;;5051503;28;19978;-70
2022/08/01 08:02:22;;;;;;;;;;;15.40;94.90;;;;;;5050920;28;19912;-69
2022/08/01 08:04:49;;;;;;;;;;;15.40;94.60;;;;;;5051155;28;19978;-70
2022/08/01 08:07:16;;;;;;;;;;;15.40;94.40;;;;;;5051102;28;19913;-68
2022/08/01 08:09:42;;;;;;;;;;;15.40;94.30;;;;;;5051140;28;19921;-69
2022/08/01 08:12:09;;;;;;;;;;;15.40;94.20;;;;;;5050731;28;19921;-69
2022/08/01 08:14:36;;;;;;;;;;;15.40;94.40;;;;;;5051360;28;19962;-69
2022/08/01 08:17:03;;;;;;;;;;;15.40;94.60;;;;;;5051098;28;19909;-69
2022/08/01 08:19:32;;;;;;;;;;;15.30;94.60;;;;;;5050923;28;19994;-69
2022/08/01 08:21:59;;;;;;;;;;;15.20;94.90;;;;;;5050960;28;19924;-69
2022/08/01 08:24:30;;;;;;;;;;;15.20;94.70;;;;;;5049894;28;21317;-69
2022/08/01 08:26:58;;;;;;;;;;;15.20;95.60;;;;;;5051163;28;19952;-69
2022/08/01 08:29:26;;;;;;;;;;;15.20;94.00;;;;;;5045298;28;20259;-69
2022/08/01 08:31:54;;;;;;;;;;;15.20;94.00;;;;;;5030325;28;19921;-69
2022/08/01 08:34:21;;;;;;;;;;;15.30;93.90;;;;;;5030585;28;19913;-69
2022/08/01 08:36:48;;;;;;;;;;;15.30;94.00;;;;;;5031109;28;20008;-69
2022/08/01 08:39:16;;;;;;;;;;;15.30;94.40;;;;;;5031331;28;19981;-69
2022/08/01 08:41:43;;;;;;;;;;;15.20;94.60;;;;;;5030838;28;20035;-68
2022/08/01 08:44:10;;;;;;;;;;;15.10;95.10;;;;;;5030192;28;20226;-68
2022/08/01 08:46:44;;;;;;;;;;;15.10;94.70;;;;;;5030423;28;20004;-68
2022/08/01 08:49:12;;;;;;;;;;;15.00;94.50;;;;;;5030497;28;20360;-69
2022/08/01 08:51:39;;;;;;;;;;;15.10;94.10;;;;;;5030841;28;19917;-69
2022/08/01 08:54:07;;;;;;;;;;;15.10;94.00;;;;;;5030589;28;19986;-69
2022/08/01 08:56:35;;;;;;;;;;;15.00;94.20;;;;;;5030343;28;19948;-68
2022/08/01 08:59:03;;;;;;;;;;;15.00;95.50;;;;;;5030739;28;20303;-69
2022/08/01 09:01:32;;;;;;;;;;;15.00;94.30;;;;;;5030015;28;19954;-68
2022/08/01 09:03:59;;;;;;;;;;;14.90;94.20;;;;;;5032933;28;20330;-68
2022/08/01 09:06:25;;;;;;;;;;;15.00;94.40;;;;;;5032390;28;19909;-68
2022/08/01 09:08:52;;;;;;;;;;;15.00;94.60;;;;;;5032791;28;20433;-69
2022/08/01 09:11:19;;;;;;;;;;;15.00;93.80;;;;;;5032858;28;20012;-68
2022/08/01 09:14:25;;;;;;;;;;;15.00;94.10;;;;;;5033021;28;19909;-69
2022/08/01 09:17:10;;;;;;;;;;;14.90;94.00;;;;;;4991415;28;19973;-68
2022/08/01 09:19:41;;;;;;;;;;;14.90;93.80;;;;;;5030937;28;20320;-68
2022/08/01 09:22:11;;;;;;;;;;;14.80;94.20;;;;;;5032754;28;19957;-69
2022/08/01 09:24:39;;;;;;;;;;;14.80;94.50;;;;;;5034249;28;19920;-69
2022/08/01 09:27:17;;;;;;;;;;;14.80;94.70;;;;;;5036696;28;20368;-68
2022/08/01 09:29:44;;;;;;;;;;;14.80;93.80;;;;;;5035999;28;19991;-69
2022/08/01 09:32:11;;;;;;;;;;;14.70;94.70;;;;;;5036535;28;19917;-69
2022/08/01 09:34:38;;;;;;;;;;;14.70;94.80;;;;;;5036743;28;19909;-69
2022/08/01 09:37:05;;;;;;;;;;;14.70;94.10;;;;;;5036075;28;19916;-68
2022/08/01 09:39:36;;;;;;;;;;;14.70;93.70;;;;;;5036843;28;19966;-68
2022/08/01 09:42:20;;;;;;;;;;;14.70;95.50;;;;;;5036430;28;19913;-68
2022/08/01 09:44:47;;;;;;;;;;;14.70;93.80;;;;;;5035916;28;19909;-68
2022/08/01 09:47:14;;;;;;;;;;;14.70;94.60;;;;;;5039282;28;19917;-68
2022/08/01 09:49:42;;;;;;;;;;;14.70;94.90;;;;;;5036425;28;19909;-68
2022/08/01 09:52:12;;;;;;;;;;;14.70;93.80;;;;;;5036122;28;19916;-68
2022/08/01 09:54:38;;;;;;;;;;;14.70;94.60;;;;;;5036200;28;19996;-68
2022/08/01 09:57:09;;;;;;;;;;;14.60;94.00;;;;;;5036362;28;20252;-68
2022/08/01 09:59:39;;;;;;;;;;;14.60;94.00;;;;;;5035680;28;19909;-68
2022/08/01 10:02:06;;;;;;;;;;;14.60;94.20;;;;;;5036044;28;19909;-68
2022/08/01 10:04:34;;;;;;;;;;;14.60;94.60;;;;;;5035269;28;19909;-68
2022/08/01 10:07:07;;;;;;;;;;;14.60;93.80;;;;;;5035975;28;19920;-68
2022/08/01 10:09:35;;;;;;;;;;;14.50;94.50;;;;;;5036395;28;19913;-68
2022/08/01 10:12:03;;;;;;;;;;;14.60;93.70;;;;;;5035308;28;19975;-68
2022/08/01 10:14:30;;;;;;;;;;;14.60;93.90;;;;;;5035872;28;19909;-68
2022/08/01 10:16:58;;;;;;;;;;;14.60;94.40;;;;;;5035751;28;19932;-68
2022/08/01 10:19:27;;;;;;;;;;;14.60;93.40;;;;;;5035676;28;19909;-68
2022/08/01 10:21:54;;;;;;;;;;;14.60;93.90;;;;;;5035490;28;19921;-68
2022/08/01 10:24:22;;;;;;;;;;;14.60;93.40;;;;;;5035250;28;19924;-68
2022/08/01 10:26:51;;;;;;;;;;;14.50;93.50;;;;;;5033355;28;19909;-68
2022/08/01 10:29:20;;;;;;;;;;;14.50;93.50;;;;;;5033710;28;19928;-68
2022/08/01 10:31:47;;;;;;;;;;;14.50;94.20;;;;;;5033001;28;19944;-68
2022/08/01 10:34:18;;;;;;;;;;;14.50;93.90;;;;;;5033117;28;20285;-68
2022/08/01 10:36:45;;;;;;;;;;;14.40;93.90;;;;;;5032955;28;19913;-68
2022/08/01 10:39:13;;;;;;;;;;;14.40;94.00;;;;;;5032656;28;19913;-68
2022/08/01 10:41:40;;;;;;;;;;;14.40;94.10;;;;;;5033054;28;20272;-68
2022/08/01 10:44:08;;;;;;;;;;;14.40;94.10;;;;;;5032745;28;20400;-68
2022/08/01 10:46:39;;;;;;;;;;;14.40;94.50;;;;;;5031619;28;20283;-68
2022/08/01 10:49:13;;;;;;;;;;;14.40;94.00;;;;;;5032885;28;19963;-68
2022/08/01 10:51:40;;;;;;;;;;;14.30;95.10;;;;;;5032675;28;19923;-68
2022/08/01 10:54:07;;;;;;;;;;;14.30;94.10;;;;;;5032276;28;20011;-68
2022/08/01 10:56:56;;;;;;;;;;;14.20;94.70;;;;;;5032642;28;19963;-68
2022/08/01 10:59:26;;;;;;;;;;;14.20;95.00;;;;;;5032446;28;19913;-68
2022/08/01 11:01:58;;;;;;;;;;;14.10;95.00;;;;;;5032745;28;19963;-68
2022/08/01 11:04:34;;;;;;;;;;;14.10;94.60;;;;;;5032296;28;19967;-68
2022/08/01 11:07:22;;;;;;;;;;;14.10;94.40;;;;;;5032382;28;19909;-68
2022/08/01 11:09:59;;;;;;;;;;;14.10;94.70;;;;;;5032601;28;19920;-68
2022/08/01 11:12:38;;;;;;;;;;;14.00;95.70;;;;;;5032440;28;20379;-68
2022/08/01 11:15:07;;;;;;;;;;;13.90;95.50;;;;;;5032365;28;20252;-68
2022/08/01 11:17:33;;;;;;;;;;;13.90;95.20;;;;;;5032354;28;19920;-68
2022/08/01 11:20:10;;;;;;;;;;;13.80;95.00;;;;;;5031718;28;19913;-68
2022/08/01 11:22:54;;;;;;;;;;;13.80;96.00;;;;;;5032455;28;19921;-68
2022/08/01 11:25:21;;;;;;;;;;;13.80;95.30;;;;;;5032390;28;19913;-68
2022/08/01 11:27:48;;;;;;;;;;;13.70;95.50;;;;;;5032311;28;20257;-68
2022/08/01 11:30:15;;;;;;;;;;;13.70;96.20;;;;;;5031942;28;20228;-68
2022/08/01 11:32:50;;;;;;;;;;;13.60;96.30;;;;;;5031433;28;20352;-68
2022/08/01 11:35:20;;;;;;;;;;;13.60;96.20;;;;;;5030760;28;20393;-68
2022/08/01 11:37:47;;;;;;;;;;;13.60;96.60;;;;;;5032157;28;19909;-68
2022/08/01 11:40:18;;;;;;;;;;;13.60;96.40;;;;;;5031789;28;19909;-68
2022/08/01 11:42:45;;;;;;;;;;;13.50;96.20;;;;;;5031924;28;20010;-68
2022/08/01 11:45:12;;;;;;;;;;;13.40;96.80;;;;;;5031486;28;20127;-68
2022/08/01 11:47:46;;;;;;;;;;;13.40;96.50;;;;;;5031389;28;19952;-68
2022/08/01 11:50:31;;;;;;;;;;;13.30;96.80;;;;;;5031619;28;19968;-68
2022/08/01 11:53:01;;;;;;;;;;;13.30;96.40;;;;;;5032933;28;19922;-68
2022/08/01 11:55:32;;;;;;;;;;;13.30;96.30;;;;;;5033691;28;19910;-68
2022/08/01 11:58:03;;;;;;;;;;;13.30;96.20;;;;;;5033530;28;19963;-68
2022/08/01 12:00:32;;;;;;;;;;;13.20;96.50;;;;;;5033183;28;19909;-68
2022/08/01 12:02:59;;;;;;;;;;;13.20;97.10;;;;;;5033600;28;19909;-68
2022/08/01 12:05:28;;;;;;;;;;;13.20;97.00;;;;;;5033668;28;19916;-68
2022/08/01 12:07:55;;;;;;;;;;;13.20;97.00;;;;;;5033466;28;19964;-68
2022/08/01 12:10:27;;;;;;;;;;;13.20;96.90;;;;;;5033264;28;19920;-68
2022/08/01 12:12:54;;;;;;;;;;;13.10;97.50;;;;;;5033569;28;19961;-68
2022/08/01 12:15:23;;;;;;;;;;;13.10;96.60;;;;;;5033110;28;19967;-68
2022/08/01 12:17:51;;;;;;;;;;;13.10;96.90;;;;;;5033424;28;19999;-68
2022/08/01 12:20:21;;;;;;;;;;;13.10;96.30;;;;;;5033077;28;20260;-68
2022/08/01 12:22:53;;;;;;;;;;;13.00;96.40;;;;;;5032159;28;20327;-68
2022/08/01 12:25:20;;;;;;;;;;;13.00;96.30;;;;;;5033483;28;20385;-69
2022/08/01 12:27:47;;;;;;;;;;;13.00;96.30;;;;;;5033371;28;19909;-69
2022/08/01 12:30:24;;;;;;;;;;;12.90;96.40;;;;;;5032513;28;20360;-68
2022/08/01 12:32:52;;;;;;;;;;;12.90;96.60;;;;;;5033150;28;20283;-68
2022/08/01 12:35:22;;;;;;;;;;;12.80;96.80;;;;;;5033232;28;20395;-68
2022/08/01 12:37:59;;;;;;;;;;;12.80;97.10;;;;;;5033389;28;20314;-68
2022/08/01 12:40:28;;;;;;;;;;;12.70;97.40;;;;;;5033179;28;19910;-68
2022/08/01 12:42:56;;;;;;;;;;;12.70;97.30;;;;;;5033350;28;19959;-68
2022/08/01 12:45:26;;;;;;;;;;;12.60;97.20;;;;;;5031445;28;19948;-68
2022/08/01 12:47:54;;;;;;;;;;;12.50;97.70;;;;;;5033023;28;19913;-68
2022/08/01 12:50:23;;;;;;;;;;;12.60;98.80;;;;;;5032950;28;19920;-68
2022/08/01 12:52:50;;;;;;;;;;;12.70;98.80;;;;;;5033066;28;20377;-68
2022/08/01 12:55:17;;;;;;;;;;;12.70;98.50;;;;;;5033156;28;19959;-68
2022/08/01 12:57:49;;;;;;;;;;;12.70;99.00;;;;;;5032978;28;19909;-68
2022/08/01 13:00:16;;;;;;;;;;;12.70;99.10;;;;;;5036247;28;19963;-68
2022/08/01 13:02:44;;;;;;;;;;;12.60;98.30;;;;;;5036959;28;20363;-68
2022/08/01 13:05:11;;;;;;;;;;;12.60;98.40;;;;;;5036992;28;19916;-68
2022/08/01 13:07:39;;;;;;;;;;;12.50;97.70;;;;;;5037374;28;19909;-68
2022/08/01 13:10:07;;;;;;;;;;;12.50;97.90;;;;;;5036692;28;19909;-68
2022/08/01 13:12:34;;;;;;;;;;;12.50;98.10;;;;;;5036611;28;19956;-68
2022/08/01 13:15:14;;;;;;;;;;;12.50;98.70;;;;;;5034978;28;19948;-68
2022/08/01 13:17:41;;;;;;;;;;;12.50;98.60;;;;;;5036673;28;20354;-68
2022/08/01 13:20:08;;;;;;;;;;;12.40;98.90;;;;;;5036387;28;19913;-68
2022/08/01 13:22:36;;;;;;;;;;;12.40;99.00;;;;;;5036725;28;19974;-68
2022/08/01 13:25:10;;;;;;;;;;;12.30;98.50;;;;;;5036538;28;19913;-68
2022/08/01 13:27:36;;;;;;;;;;;12.30;98.60;;;;;;5036182;28;20383;-68
2022/08/01 13:30:13;;;;;;;;;;;12.30;98.70;;;;;;5036276;28;19909;-68
2022/08/01 13:32:39;;;;;;;;;;;12.30;98.90;;;;;;5036330;28;19917;-68
2022/08/01 13:35:08;;;;;;;;;;;12.30;99.20;;;;;;5036461;28;19970;-68
2022/08/01 13:37:35;;;;;;;;;;;12.30;98.80;;;;;;5036332;28;19909;-68
2022/08/01 13:40:02;;;;;;;;;;;12.30;98.80;;;;;;5036457;28;20376;-68
2022/08/01 13:42:29;;;;;;;;;;;12.40;98.90;;;;;;5036419;28;19916;-68
2022/08/01 13:44:56;;;;;;;;;;;12.40;99.20;;;;;;5036257;28;19909;-68
2022/08/01 13:47:22;;;;;;;;;;;12.40;98.80;;;;;;5036022;28;19960;-69
2022/08/01 13:49:49;;;;;;;;;;;12.40;98.80;;;;;;5036265;28;19917;-68
2022/08/01 13:52:16;;;;;;;;;;;12.40;98.90;;;;;;5035895;28;19924;-68
2022/08/01 13:54:42;;;;;;;;;;;12.40;99.30;;;;;;5034809;28;20260;-68
2022/08/01 13:57:09;;;;;;;;;;;12.40;99.30;;;;;;5036044;28;19915;-68
2022/08/01 13:59:36;;;;;;;;;;;12.50;99.40;;;;;;5036002;28;20356;-68
2022/08/01 14:02:03;;;;;;;;;;;12.60;99.80;;;;;;5035608;28;20355;-68
2022/08/01 14:04:29;;;;;;;;;;;12.60;99.30;;;;;;5035867;28;19931;-68
2022/08/01 14:06:56;;;;;;;;;;;12.60;99.30;;;;;;5035819;28;19932;-68
2022/08/01 14:09:23;;;;;;;;;;;12.60;99.40;;;;;;5035796;28;19988;-68
2022/08/01 14:11:49;;;;;;;;;;;12.50;99.50;;;;;;5035263;28;19960;-68
2022/08/01 14:14:16;;;;;;;;;;;12.40;99.30;;;;;;5035546;28;19924;-68
2022/08/01 14:16:44;;;;;;;;;;;12.40;99.80;;;;;;5035442;28;20381;-68
2022/08/01 14:19:11;;;;;;;;;;;12.30;99.70;;;;;;5035603;28;19948;-68
2022/08/01 14:21:38;;;;;;;;;;;12.30;99.50;;;;;;5035369;28;20395;-68
2022/08/01 14:24:06;;;;;;;;;;;12.20;99.90;;;;;;5035432;28;19916;-67